Velarde, New Mexico
Current Conditions -  °F | °C
As of 1:55 PM on Friday 19 Dec 2014 (Local Time) from KLAM Reporting Station
Scattered Clouds Scattered Clouds  
Wind Chill: -3°   Ceiling: Unl
Heat Index:   Visibility: 10mi
Dew Point: -6°   Wind: 8mph
Humidity: 59%   Direction: 80°E
Pressure: 30.15"   Gusts: NA
Location:  36.16°N, 105.97°W
Report Text: KLAM 192055Z AUTO 08007KT 10SM SCT037 01/M06 A3015 RMK AO2 T00091062
Loading
Personal Weather Stations






























Interactive Weather Map New forecast layout! Learn more

10-Day Weather Forecast

Advertisements
Track Severe Weather on mobile